createdAt,value
2023-01-13T00:03:49.949Z,4.20
2023-01-13T00:08:53.873Z,6.83
2023-01-13T00:13:56.548Z,5.47
2023-01-13T00:18:59.112Z,5.20
2023-01-13T00:24:01.767Z,3.77
2023-01-13T00:29:04.250Z,3.83
2023-01-13T00:34:06.822Z,4.77
2023-01-13T00:39:09.482Z,5.20
2023-01-13T00:44:12.015Z,3.70
2023-01-13T00:49:14.729Z,4.63
2023-01-13T00:54:17.240Z,4.73
2023-01-13T00:59:19.745Z,9.33
2023-01-13T01:04:22.286Z,4.77
2023-01-13T01:09:32.579Z,4.30
2023-01-13T01:14:35.080Z,4.63
2023-01-13T01:19:38.793Z,4.00
2023-01-13T01:24:41.303Z,3.03
2023-01-13T01:29:43.762Z,3.00
2023-01-13T01:34:46.303Z,3.70
2023-01-13T01:39:48.853Z,5.23
2023-01-13T01:45:00.205Z,4.70
2023-01-13T01:50:04.198Z,5.20
2023-01-13T01:55:18.259Z,3.30
2023-01-13T02:00:21.232Z,4.63
2023-01-13T02:05:24.600Z,4.93
2023-01-13T02:10:29.130Z,3.60
2023-01-13T02:15:56.377Z,3.33
2023-01-13T02:21:12.332Z,4.27
2023-01-13T02:26:33.049Z,3.03
2023-01-13T02:31:43.177Z,2.83
2023-01-13T02:37:06.912Z,5.67
2023-01-13T02:42:33.091Z,3.80
2023-01-13T02:47:39.129Z,2.20
2023-01-13T02:52:46.675Z,3.90
2023-01-13T02:57:52.596Z,2.80
2023-01-13T03:02:55.446Z,3.10
2023-01-13T03:08:25.694Z,7.70
2023-01-13T03:14:01.365Z,4.20
2023-01-13T03:19:30.447Z,5.20
2023-01-13T03:24:41.993Z,3.77
2023-01-13T03:29:47.423Z,4.20
2023-01-13T03:34:54.365Z,3.70
2023-01-13T03:40:04.489Z,2.93
2023-01-13T03:45:17.445Z,5.17
2023-01-13T03:50:28.410Z,4.07
2023-01-13T03:55:54.034Z,2.53
2023-01-13T04:00:58.776Z,3.77
2023-01-13T04:06:21.930Z,2.33
2023-01-13T04:11:42.857Z,4.77
2023-01-13T04:16:45.357Z,1.93
2023-01-13T04:21:48.041Z,2.57
2023-01-13T04:26:50.789Z,2.57
2023-01-13T04:31:53.390Z,3.17
2023-01-13T04:36:55.974Z,3.57
2023-01-13T04:41:58.399Z,2.37
2023-01-13T04:47:02.231Z,2.77
2023-01-13T04:52:07.170Z,3.53
2023-01-13T04:57:09.800Z,4.43
2023-01-13T05:02:19.817Z,4.67
2023-01-13T05:07:22.473Z,3.30
2023-01-13T05:12:43.785Z,2.37
2023-01-13T05:17:46.724Z,6.93
2023-01-13T05:23:08.145Z,5.20
2023-01-13T05:28:11.064Z,4.27
2023-01-13T05:33:16.273Z,4.77
2023-01-13T05:38:18.970Z,4.37
2023-01-13T05:43:25.177Z,4.00
2023-01-13T05:48:32.393Z,7.03
2023-01-13T05:53:35.327Z,8.10
2023-01-13T05:58:38.268Z,7.93
2023-01-13T06:03:40.903Z,6.83
2023-01-13T06:08:43.571Z,7.20
2023-01-13T06:13:46.057Z,8.87
2023-01-13T06:18:48.642Z,16.73
2023-01-13T06:23:51.187Z,8.37
2023-01-13T06:28:53.605Z,8.33
2023-01-13T06:34:02.626Z,8.40
2023-01-13T06:39:05.267Z,7.97
2023-01-13T06:44:07.922Z,11.93
2023-01-13T06:49:10.451Z,10.63
2023-01-13T06:54:13.044Z,7.93
2023-01-13T06:59:15.491Z,9.33
2023-01-13T07:04:18.923Z,7.90
2023-01-13T07:09:21.534Z,6.00
2023-01-13T07:14:42.487Z,6.40
2023-01-13T07:19:45.006Z,9.57
2023-01-13T07:24:47.606Z,25.03
2023-01-13T07:29:50.320Z,13.20
2023-01-13T07:34:53.072Z,11.67
2023-01-13T07:39:55.627Z,8.13
2023-01-13T07:44:58.268Z,10.80
2023-01-13T07:50:00.870Z,9.50
2023-01-13T07:55:03.425Z,9.97
2023-01-13T08:00:06.572Z,10.40
2023-01-13T08:05:09.692Z,8.57
2023-01-13T08:10:12.261Z,8.63
2023-01-13T08:15:14.876Z,9.47
2023-01-13T08:20:17.529Z,9.63
2023-01-13T08:25:21.359Z,10.00
2023-01-13T08:30:23.953Z,9.17
2023-01-13T08:35:26.519Z,12.17
2023-01-13T08:40:28.994Z,6.40
2023-01-13T08:45:31.560Z,7.50
2023-01-13T08:50:34.098Z,9.47
2023-01-13T08:55:36.612Z,12.57
2023-01-13T09:00:39.143Z,9.93
2023-01-13T09:05:41.639Z,9.30
2023-01-13T09:10:44.309Z,8.13
2023-01-13T09:15:47.375Z,9.17
2023-01-13T09:20:50.019Z,11.63
2023-01-13T09:25:53.356Z,6.83
2023-01-13T09:31:00.344Z,8.43
2023-01-13T09:36:02.938Z,7.67
2023-01-13T09:41:25.862Z,8.67
2023-01-13T09:46:47.236Z,6.00
2023-01-13T09:52:02.641Z,7.27
2023-01-13T09:57:14.505Z,5.53
2023-01-13T10:02:26.904Z,6.83
2023-01-13T10:07:31.899Z,7.03
2023-01-13T10:12:52.840Z,7.73
2023-01-13T10:18:08.527Z,7.97
2023-01-13T10:23:34.570Z,7.30
2023-01-13T10:28:37.135Z,8.17
2023-01-13T10:33:39.630Z,7.60
2023-01-13T10:38:45.672Z,8.37
2023-01-13T10:44:08.446Z,10.43
2023-01-13T10:49:37.172Z,9.10
2023-01-13T10:54:52.325Z,8.47
2023-01-13T10:59:56.316Z,5.10
2023-01-13T11:05:25.168Z,5.80
2023-01-13T11:10:31.421Z,6.23
2023-01-13T11:16:02.462Z,6.00
2023-01-13T11:21:17.539Z,5.83
2023-01-13T11:26:29.281Z,8.50
2023-01-13T11:31:36.897Z,4.70
2023-01-13T11:36:47.802Z,5.67
2023-01-13T11:42:22.487Z,6.90
2023-01-13T11:47:26.805Z,11.27
2023-01-13T11:52:51.200Z,7.93
2023-01-13T11:58:33.785Z,7.20
2023-01-13T12:03:46.556Z,7.40
2023-01-13T12:09:02.086Z,6.80
2023-01-13T12:14:20.562Z,15.70
2023-01-13T12:19:29.677Z,8.83
2023-01-13T12:24:45.955Z,8.90
2023-01-13T12:29:50.706Z,7.43
2023-01-13T12:35:16.796Z,10.83
2023-01-13T12:40:34.806Z,9.27
2023-01-13T12:45:37.456Z,13.23
2023-01-13T12:50:41.406Z,12.63
2023-01-13T12:55:44.115Z,8.30
2023-01-13T13:00:48.840Z,9.33
2023-01-13T13:05:56.304Z,10.40
2023-01-13T13:11:32.768Z,11.43
2023-01-13T13:16:45.352Z,12.47
2023-01-13T13:22:13.004Z,11.53
2023-01-13T13:27:47.707Z,12.07
2023-01-13T13:33:20.776Z,10.33
2023-01-13T13:39:00.954Z,19.30
2023-01-13T13:44:33.001Z,8.40
2023-01-13T13:49:41.400Z,4.97
2023-01-13T13:54:49.268Z,6.70
2023-01-13T13:59:56.121Z,7.60
2023-01-13T14:05:34.656Z,14.43
2023-01-13T14:10:39.944Z,12.33
2023-01-13T14:15:42.508Z,19.07
2023-01-13T14:21:00.204Z,11.33
2023-01-13T14:26:08.917Z,6.97
2023-01-13T14:31:14.338Z,9.50
2023-01-13T14:36:18.939Z,7.60
2023-01-13T14:41:25.646Z,8.87
2023-01-13T14:46:43.013Z,8.67
2023-01-13T14:51:45.514Z,11.10
2023-01-13T14:56:55.179Z,8.97
2023-01-13T15:01:57.906Z,10.77
2023-01-13T15:07:01.366Z,11.03
2023-01-13T15:12:23.622Z,9.27
2023-01-13T15:17:29.431Z,9.97
2023-01-13T15:22:32.276Z,17.73
2023-01-13T15:27:34.672Z,9.80
2023-01-13T15:32:37.213Z,6.43
2023-01-13T15:37:40.209Z,8.00
2023-01-13T15:43:01.829Z,9.17
2023-01-13T15:48:04.537Z,7.37
2023-01-13T15:53:07.300Z,6.00
2023-01-13T15:58:14.836Z,6.50
2023-01-13T16:03:17.519Z,5.47
2023-01-13T16:08:22.468Z,5.43
2023-01-13T16:13:24.896Z,8.73
2023-01-13T16:18:27.482Z,7.53
2023-01-13T16:23:30.115Z,10.07
2023-01-13T16:28:35.419Z,9.10
2023-01-13T16:33:37.903Z,6.33
2023-01-13T16:38:40.475Z,10.90
2023-01-13T16:43:43.817Z,7.73
2023-01-13T16:48:46.928Z,8.87
2023-01-13T16:53:50.323Z,12.50
2023-01-13T16:58:58.088Z,14.30
2023-01-13T17:04:01.149Z,13.90
2023-01-13T17:09:19.116Z,15.07
2023-01-13T17:14:23.650Z,13.27
2023-01-13T17:19:26.349Z,13.67
2023-01-13T17:24:31.131Z,16.50
2023-01-13T17:29:34.280Z,21.97
2023-01-13T17:34:36.892Z,26.10
2023-01-13T17:39:39.823Z,21.00
2023-01-13T17:44:42.653Z,24.87
2023-01-13T17:49:45.413Z,17.73
2023-01-13T17:54:48.083Z,16.13
2023-01-13T17:59:50.857Z,12.63
2023-01-13T18:04:53.487Z,15.63
2023-01-13T18:09:56.035Z,19.20
2023-01-13T18:14:58.643Z,22.70
2023-01-13T18:20:19.766Z,18.13
2023-01-13T18:25:40.915Z,15.03
2023-01-13T18:30:43.666Z,14.37
2023-01-13T18:35:46.327Z,14.60
2023-01-13T18:40:49.034Z,18.57
2023-01-13T18:45:51.702Z,14.73
2023-01-13T18:50:54.333Z,16.13
2023-01-13T18:55:56.908Z,20.23
2023-01-13T19:01:03.988Z,17.03
2023-01-13T19:06:11.805Z,16.43
2023-01-13T19:11:14.666Z,16.17
2023-01-13T19:16:23.528Z,25.40
2023-01-13T19:21:26.535Z,23.27
2023-01-13T19:26:29.698Z,23.50
2023-01-13T19:31:32.148Z,31.27
2023-01-13T19:36:34.965Z,35.30
2023-01-13T19:41:56.575Z,19.43
2023-01-13T19:46:59.589Z,17.53
2023-01-13T19:52:02.534Z,22.60
2023-01-13T19:57:06.171Z,24.93
2023-01-13T20:02:31.750Z,24.13
2023-01-13T20:07:35.364Z,30.07
2023-01-13T20:12:37.845Z,33.57
2023-01-13T20:17:41.555Z,26.30
2023-01-13T20:22:44.744Z,28.07
2023-01-13T20:27:48.066Z,28.70
2023-01-13T20:32:50.927Z,26.60
2023-01-13T20:37:53.643Z,38.60
2023-01-13T20:42:56.812Z,22.77
2023-01-13T20:47:59.499Z,27.17
2023-01-13T20:53:02.087Z,20.70
2023-01-13T20:58:04.506Z,27.10
2023-01-13T21:03:07.070Z,24.37
2023-01-13T21:08:09.613Z,24.77
2023-01-13T21:13:30.945Z,16.27
2023-01-13T21:18:52.106Z,16.47
2023-01-13T21:23:54.878Z,22.37
2023-01-13T21:28:58.624Z,19.83
2023-01-13T21:34:01.520Z,20.97
2023-01-13T21:39:04.300Z,17.30
2023-01-13T21:44:38.952Z,17.10
2023-01-13T21:49:44.374Z,21.80
2023-01-13T21:55:05.363Z,18.40
2023-01-13T22:00:08.788Z,13.83
2023-01-13T22:05:13.844Z,17.77
2023-01-13T22:10:19.068Z,19.17
2023-01-13T22:15:22.716Z,17.03
2023-01-13T22:20:25.256Z,16.90
2023-01-13T22:25:27.789Z,17.67
2023-01-13T22:30:32.584Z,14.87
2023-01-13T22:35:35.404Z,14.73
2023-01-13T22:40:37.827Z,19.20
2023-01-13T22:45:40.578Z,17.40
2023-01-13T22:50:43.859Z,15.50
2023-01-13T22:55:57.586Z,11.73
2023-01-13T23:01:15.638Z,12.20
2023-01-13T23:06:19.354Z,10.70
2023-01-13T23:11:25.027Z,10.03
2023-01-13T23:16:29.263Z,12.13
2023-01-13T23:21:34.621Z,12.63
2023-01-13T23:26:37.638Z,11.00
2023-01-13T23:31:40.364Z,11.63
2023-01-13T23:36:44.446Z,8.57
2023-01-13T23:41:46.867Z,11.23
2023-01-13T23:46:49.465Z,11.20
2023-01-13T23:51:52.534Z,9.33
2023-01-13T23:56:55.246Z,8.73
